Time;durP1;ratioP1;P1;durP2;ratioP2;P2;SDS_P1;SDS_P2;PMS_P1;PMS_P2;Temp;Humidity;BMP_temperature;BMP_pressure;BME280_temperature;BME280_humidity;BME280_pressure;Samples;Min_cycle;Max_cycle;Signal;HPM_P1;HPM_P2
2022/08/27 00:01:24;;;;;;;8.90;2.10;;;15.40;99.90;;;;;;5065769;28;20033;-83
2022/08/27 00:03:52;;;;;;;7.88;2.38;;;15.40;99.90;;;;;;5055011;28;20072;-82
2022/08/27 00:06:18;;;;;;;4.10;2.42;;;15.30;99.90;;;;;;5072092;28;20123;-84
2022/08/27 00:08:45;;;;;;;7.63;2.13;;;15.30;99.90;;;;;;5075888;28;20403;-82
2022/08/27 00:11:11;;;;;;;3.78;1.88;;;15.20;99.90;;;;;;5072652;28;20491;-82
2022/08/27 00:13:37;;;;;;;5.53;2.13;;;15.20;99.90;;;;;;5086265;28;20032;-82
2022/08/27 00:16:05;;;;;;;4.90;2.05;;;15.20;99.90;;;;;;5067778;28;20394;-83
2022/08/27 00:18:32;;;;;;;4.68;2.17;;;15.10;99.90;;;;;;5067359;28;20047;-83
2022/08/27 00:20:58;;;;;;;8.45;2.08;;;15.10;99.90;;;;;;5072943;28;20036;-82
2022/08/27 00:23:24;;;;;;;4.45;2.30;;;15.10;99.90;;;;;;5073159;28;20553;-81
2022/08/27 00:25:49;;;;;;;3.38;2.20;;;15.00;99.90;;;;;;5055881;28;20040;-82
2022/08/27 00:28:15;;;;;;;9.07;2.20;;;14.90;99.90;;;;;;5055617;28;20426;-82
2022/08/27 00:30:40;;;;;;;7.25;2.30;;;15.00;99.90;;;;;;5072291;28;20112;-82
2022/08/27 00:33:06;;;;;;;6.93;2.50;;;15.00;99.90;;;;;;5075980;28;20048;-82
2022/08/27 00:35:32;;;;;;;5.90;2.13;;;15.00;99.90;;;;;;5073517;28;20031;-83
2022/08/27 00:37:59;;;;;;;7.53;2.50;;;15.00;99.90;;;;;;5072825;28;20440;-83
2022/08/27 00:40:25;;;;;;;9.70;2.50;;;14.90;99.90;;;;;;5059050;28;20047;-81
2022/08/27 00:42:50;;;;;;;5.95;2.67;;;14.90;99.90;;;;;;5056454;28;20032;-82
2022/08/27 00:45:19;;;;;;;7.28;2.53;;;14.90;99.90;;;;;;5072049;28;20028;-82
2022/08/27 00:47:49;;;;;;;4.57;2.05;;;14.80;99.90;;;;;;5074446;28;20036;-82
2022/08/27 00:50:23;;;;;;;5.00;2.53;;;14.90;99.90;;;;;;5055711;28;20025;-82
2022/08/27 00:52:57;;;;;;;7.38;2.30;;;14.80;99.90;;;;;;5072315;28;20037;-82
2022/08/27 00:55:26;;;;;;;8.93;2.85;;;14.90;99.90;;;;;;5055675;28;20025;-83
2022/08/27 00:58:08;;;;;;;6.20;2.70;;;14.90;99.90;;;;;;5055231;28;20044;-82
2022/08/27 01:00:34;;;;;;;8.65;2.92;;;14.90;99.90;;;;;;5072062;28;20048;-83
2022/08/27 01:03:00;;;;;;;7.57;2.80;;;14.90;99.90;;;;;;5055654;28;20430;-83
2022/08/27 01:05:26;;;;;;;7.90;3.08;;;14.90;99.90;;;;;;5055207;28;20078;-82
2022/08/27 01:07:58;;;;;;;5.65;2.35;;;14.80;99.90;;;;;;5071934;28;20040;-82
2022/08/27 01:10:25;;;;;;;5.53;2.70;;;14.80;99.90;;;;;;5071705;28;20098;-81
2022/08/27 01:12:53;;;;;;;10.18;3.55;;;14.90;99.90;;;;;;5071989;28;20032;-83
2022/08/27 01:15:21;;;;;;;6.18;3.53;;;14.90;99.90;;;;;;5055543;28;20478;-82
2022/08/27 01:17:48;;;;;;;7.25;2.88;;;14.90;99.90;;;;;;5057020;28;20120;-82
2022/08/27 01:20:25;;;;;;;9.02;2.80;;;14.90;99.90;;;;;;5062577;28;20407;-82
2022/08/27 01:23:12;;;;;;;5.40;2.80;;;14.90;99.90;;;;;;5059786;28;20058;-82
2022/08/27 01:25:41;;;;;;;8.32;2.97;;;14.80;99.90;;;;;;5075336;28;20036;-80
2022/08/27 01:28:08;;;;;;;9.93;3.47;;;14.90;99.90;;;;;;5083939;28;20040;-83
2022/08/27 01:30:35;;;;;;;7.38;2.58;;;14.90;99.90;;;;;;5071488;28;20044;-81
2022/08/27 01:33:10;;;;;;;9.80;3.58;;;14.90;99.90;;;;;;5076974;28;20545;-82
2022/08/27 01:35:36;;;;;;;7.50;2.67;;;14.90;99.90;;;;;;5072862;28;20517;-81
2022/08/27 01:38:02;;;;;;;5.57;2.63;;;14.90;99.90;;;;;;5072302;28;20036;-83
2022/08/27 01:40:27;;;;;;;5.22;2.30;;;14.80;99.90;;;;;;5079557;28;20120;-83
2022/08/27 01:42:55;;;;;;;6.88;3.20;;;14.80;99.90;;;;;;5072666;28;20066;-83
2022/08/27 01:45:25;;;;;;;5.43;2.90;;;14.80;99.90;;;;;;5071145;28;20041;-83
2022/08/27 01:47:51;;;;;;;6.32;2.63;;;14.90;99.90;;;;;;5078231;28;20418;-82
2022/08/27 01:50:23;;;;;;;5.63;2.83;;;14.90;99.90;;;;;;5075500;28;20037;-81
2022/08/27 01:52:50;;;;;;;8.73;3.28;;;14.80;99.90;;;;;;5070457;28;20036;-83
2022/08/27 01:55:19;;;;;;;8.60;3.05;;;14.80;99.90;;;;;;5071804;28;20406;-82
2022/08/27 01:57:45;;;;;;;7.43;3.22;;;14.90;99.90;;;;;;5070265;28;20036;-82
2022/08/27 02:00:19;;;;;;;9.40;3.42;;;14.90;99.90;;;;;;5072680;28;20154;-82
2022/08/27 02:02:45;;;;;;;7.68;3.25;;;14.80;99.90;;;;;;5059238;28;20051;-83
2022/08/27 02:05:12;;;;;;;6.25;2.97;;;14.90;99.90;;;;;;5067750;28;20051;-81
2022/08/27 02:07:38;;;;;;;6.35;3.00;;;14.80;99.90;;;;;;5068868;28;20582;-83
2022/08/27 02:10:08;;;;;;;8.60;2.90;;;14.80;99.90;;;;;;5064998;28;20044;-82
2022/08/27 02:12:33;;;;;;;9.82;3.42;;;14.80;99.90;;;;;;5064543;28;20040;-82
2022/08/27 02:15:00;;;;;;;6.60;3.15;;;14.80;99.90;;;;;;5054233;28;20527;-81
2022/08/27 02:17:26;;;;;;;6.35;3.58;;;14.80;99.90;;;;;;5076817;28;20081;-82
2022/08/27 02:19:52;;;;;;;6.55;2.92;;;14.60;99.90;;;;;;5082296;28;20044;-82
2022/08/27 02:22:18;;;;;;;6.18;2.92;;;14.70;99.90;;;;;;5078732;28;20519;-82
2022/08/27 02:24:44;;;;;;;5.55;3.47;;;14.70;99.90;;;;;;5077859;28;20044;-82
2022/08/27 02:27:09;;;;;;;5.25;3.10;;;14.60;99.90;;;;;;5077398;28;20040;-82
2022/08/27 02:29:35;;;;;;;5.55;3.05;;;14.60;99.90;;;;;;5061721;28;20581;-82
2022/08/27 02:32:01;;;;;;;5.45;3.05;;;14.40;99.90;;;;;;5065352;28;20067;-83
2022/08/27 02:34:27;;;;;;;8.60;3.42;;;14.40;99.90;;;;;;5061964;28;20433;-82
2022/08/27 02:36:53;;;;;;;9.20;3.53;;;14.40;99.90;;;;;;5060173;28;20041;-83
2022/08/27 02:39:19;;;;;;;6.93;3.70;;;14.30;99.90;;;;;;5077322;28;20033;-82
2022/08/27 02:41:47;;;;;;;5.15;3.50;;;14.30;99.90;;;;;;5056286;28;20048;-82
2022/08/27 02:44:13;;;;;;;6.78;3.35;;;14.30;99.90;;;;;;5066792;28;20075;-83
2022/08/27 02:46:39;;;;;;;12.00;3.20;;;14.30;99.90;;;;;;5084519;28;20468;-82
2022/08/27 02:49:05;;;;;;;5.22;3.42;;;14.10;99.90;;;;;;5079184;28;20037;-82
2022/08/27 02:51:30;;;;;;;7.65;3.83;;;14.10;99.90;;;;;;5069496;28;20618;-82
2022/08/27 02:53:56;;;;;;;5.20;3.05;;;14.10;99.90;;;;;;5078502;28;20111;-82
2022/08/27 02:56:22;;;;;;;6.93;3.92;;;14.10;99.90;;;;;;5078321;28;20051;-82
2022/08/27 02:58:47;;;;;;;9.40;3.28;;;14.10;99.90;;;;;;5078988;28;20503;-83
2022/08/27 03:01:14;;;;;;;5.05;3.22;;;14.10;99.90;;;;;;5078408;28;20043;-83
2022/08/27 03:03:40;;;;;;;6.68;3.40;;;14.10;99.90;;;;;;5067814;28;20124;-82
2022/08/27 03:06:06;;;;;;;6.63;3.10;;;14.00;99.90;;;;;;5077627;28;20090;-82
2022/08/27 03:08:32;;;;;;;5.90;3.33;;;14.00;99.90;;;;;;5074047;28;20041;-83
2022/08/27 03:10:57;;;;;;;9.23;3.80;;;13.90;99.90;;;;;;5073290;28;20032;-82
2022/08/27 03:13:24;;;;;;;6.53;3.42;;;13.90;99.90;;;;;;5044353;28;20036;-82
2022/08/27 03:15:51;;;;;;;7.65;3.45;;;13.90;99.90;;;;;;5077362;28;20072;-82
2022/08/27 03:18:16;;;;;;;5.38;3.50;;;13.80;99.90;;;;;;5083295;28;20396;-83
2022/08/27 03:20:45;;;;;;;7.50;3.20;;;13.80;99.90;;;;;;5077254;28;20102;-83
2022/08/27 03:23:13;;;;;;;7.63;3.53;;;13.80;99.90;;;;;;5093060;28;20024;-77
2022/08/27 03:25:41;;;;;;;10.13;3.22;;;13.70;99.90;;;;;;5103821;28;20031;-77
2022/08/27 03:28:07;;;;;;;10.55;3.83;;;13.80;99.90;;;;;;5101694;28;20051;-78
2022/08/27 03:30:33;;;;;;;4.57;3.65;;;13.80;99.90;;;;;;5072818;28;20053;-82
2022/08/27 03:32:59;;;;;;;6.80;4.03;;;13.80;99.90;;;;;;5071827;28;20036;-83
2022/08/27 03:35:24;;;;;;;8.15;3.80;;;13.70;99.90;;;;;;5055654;28;20050;-83
2022/08/27 03:37:50;;;;;;;8.88;4.18;;;13.60;99.90;;;;;;5072082;28;20048;-83
2022/08/27 03:40:17;;;;;;;6.97;3.47;;;13.70;99.90;;;;;;5070468;28;20124;-82
2022/08/27 03:42:43;;;;;;;9.43;3.60;;;13.70;99.90;;;;;;5073801;28;20047;-83
2022/08/27 03:45:09;;;;;;;7.35;3.65;;;13.70;99.90;;;;;;5071995;28;20094;-83
2022/08/27 03:47:36;;;;;;;12.85;4.15;;;13.80;99.90;;;;;;5073402;28;20368;-83
2022/08/27 03:50:04;;;;;;;4.43;3.30;;;13.70;99.90;;;;;;5071424;28;20131;-83
2022/08/27 03:52:32;;;;;;;6.72;3.78;;;13.80;99.90;;;;;;5073327;28;20510;-82
2022/08/27 03:54:58;;;;;;;7.38;4.07;;;13.80;99.90;;;;;;5069960;28;20124;-82
2022/08/27 03:57:23;;;;;;;5.07;3.38;;;13.70;99.90;;;;;;5076571;28;20104;-83
2022/08/27 03:59:50;;;;;;;8.13;3.70;;;13.80;99.90;;;;;;5066007;28;20475;-83
2022/08/27 04:02:15;;;;;;;6.80;2.85;;;13.80;99.90;;;;;;5072180;28;20487;-82
2022/08/27 04:04:41;;;;;;;8.20;3.97;;;13.70;99.90;;;;;;5071974;28;20072;-83
2022/08/27 04:07:08;;;;;;;7.20;3.70;;;13.80;99.90;;;;;;5072664;28;20036;-82
2022/08/27 04:09:34;;;;;;;6.85;4.30;;;13.80;99.90;;;;;;5071288;28;20051;-83
2022/08/27 04:12:00;;;;;;;6.78;3.58;;;13.70;99.90;;;;;;5072314;28;20040;-83
2022/08/27 04:14:26;;;;;;;9.02;3.60;;;13.70;99.90;;;;;;5073360;28;20056;-83
2022/08/27 04:16:53;;;;;;;9.13;3.63;;;13.70;99.90;;;;;;5072520;28;20044;-83
2022/08/27 04:19:19;;;;;;;5.60;2.95;;;13.70;99.90;;;;;;5075302;28;20752;-83
2022/08/27 04:21:44;;;;;;;5.35;3.20;;;13.70;99.90;;;;;;5072257;28;20123;-83
2022/08/27 04:24:10;;;;;;;8.15;3.70;;;13.70;99.90;;;;;;5054921;28;20037;-83
2022/08/27 04:26:39;;;;;;;5.82;3.60;;;13.70;99.90;;;;;;5053710;28;20040;-81
2022/08/27 04:29:05;;;;;;;6.43;3.33;;;13.60;99.90;;;;;;5055496;28;20060;-83
2022/08/27 04:31:31;;;;;;;7.13;3.67;;;13.70;99.90;;;;;;5074593;28;20121;-82
2022/08/27 04:33:56;;;;;;;8.18;3.45;;;13.60;99.90;;;;;;5072456;28;20029;-83
2022/08/27 04:36:22;;;;;;;7.47;3.30;;;13.60;99.90;;;;;;5073832;28;20044;-83
2022/08/27 04:38:48;;;;;;;7.35;3.78;;;13.60;99.90;;;;;;5072160;28;20081;-82
2022/08/27 04:41:25;;;;;;;7.13;3.72;;;13.60;99.90;;;;;;5062103;28;20515;-82
2022/08/27 04:44:04;;;;;;;9.98;3.40;;;13.70;99.90;;;;;;5055608;28;20063;-83
2022/08/27 04:46:35;;;;;;;;;;;13.80;99.90;;;;;;5054901;28;20088;-79
2022/08/27 04:49:12;;;;;;;9.32;4.05;;;13.80;99.90;;;;;;5053803;28;19924;-79
2022/08/27 04:51:39;;;;;;;7.57;3.75;;;13.80;99.90;;;;;;5074728;28;20041;-80
2022/08/27 04:54:05;;;;;;;9.48;3.65;;;13.90;99.90;;;;;;5072159;28;20479;-78
2022/08/27 04:56:32;;;;;;;5.75;3.03;;;14.00;99.90;;;;;;5077662;28;20028;-78
2022/08/27 04:58:59;;;;;;;8.10;3.35;;;14.00;99.90;;;;;;5054312;28;20537;-81
2022/08/27 05:01:28;;;;;;;11.00;4.22;;;14.00;99.90;;;;;;5056192;28;20072;-78
2022/08/27 05:03:54;;;;;;;5.72;3.10;;;14.10;99.90;;;;;;5074574;28;20076;-79
2022/08/27 05:06:21;;;;;;;5.15;3.30;;;14.20;99.90;;;;;;5054500;28;20066;-78
2022/08/27 05:08:49;;;;;;;7.32;3.70;;;14.20;99.90;;;;;;5074901;28;20028;-79
2022/08/27 05:11:15;;;;;;;5.50;3.42;;;14.10;99.90;;;;;;5070520;28;20040;-80
2022/08/27 05:13:42;;;;;;;9.90;3.67;;;14.30;99.90;;;;;;5072613;28;20484;-79
2022/08/27 05:16:12;;;;;;;6.38;3.28;;;14.20;99.90;;;;;;5062632;28;20083;-78
2022/08/27 05:18:39;;;;;;;4.30;3.05;;;14.30;99.90;;;;;;5063882;28;20407;-78
2022/08/27 05:21:06;;;;;;;8.00;3.42;;;14.30;99.90;;;;;;5070655;28;20734;-79
2022/08/27 05:23:32;;;;;;;8.90;3.97;;;14.40;99.90;;;;;;5070282;28;20037;-79
2022/08/27 05:25:59;;;;;;;8.55;3.80;;;14.40;99.90;;;;;;5070276;28;20047;-78
2022/08/27 05:28:26;;;;;;;8.38;3.95;;;14.40;99.90;;;;;;5069937;28;20530;-78
2022/08/27 05:30:54;;;;;;;8.98;3.92;;;14.40;99.90;;;;;;5076330;28;20406;-78
2022/08/27 05:33:22;;;;;;;6.47;3.53;;;14.40;99.90;;;;;;5078967;28;20443;-79
2022/08/27 05:35:54;;;;;;;11.13;3.95;;;14.40;99.90;;;;;;5071171;28;20056;-79
2022/08/27 05:38:20;;;;;;;5.60;3.60;;;14.50;99.90;;;;;;5053759;28;20056;-79
2022/08/27 05:40:47;;;;;;;7.85;3.60;;;14.60;99.90;;;;;;5053465;28;20137;-79
2022/08/27 05:43:17;;;;;;;6.60;3.40;;;14.50;99.90;;;;;;5055775;28;20040;-78
2022/08/27 05:45:45;;;;;;;6.85;3.25;;;14.70;99.90;;;;;;5070437;28;20732;-79
2022/08/27 05:48:12;;;;;;;7.03;3.40;;;14.60;99.90;;;;;;5071027;28;20059;-78
2022/08/27 05:50:39;;;;;;;7.18;3.33;;;14.70;99.90;;;;;;5070903;28;20032;-78
2022/08/27 05:53:06;;;;;;;11.65;3.78;;;14.60;99.90;;;;;;5070862;28;20024;-78
2022/08/27 05:55:43;;;;;;;11.15;3.78;;;14.50;99.90;;;;;;5071075;28;20443;-81
2022/08/27 06:01:03;;;;;;;5.78;3.53;;;14.60;99.90;;;;;;5070451;28;20068;-79
2022/08/27 06:01:03;;;;;;;7.00;3.72;;;14.50;99.90;;;;;;5062935;28;20045;-78
2022/08/27 06:03:29;;;;;;;7.97;3.90;;;14.50;99.90;;;;;;5062677;28;20435;-78
2022/08/27 06:06:06;;;;;;;6.72;3.85;;;14.40;99.90;;;;;;5061822;28;20037;-79
2022/08/27 06:08:32;;;;;;;10.23;3.88;;;14.40;99.90;;;;;;5063300;28;20045;-79
2022/08/27 06:11:03;;;;;;;6.57;3.70;;;14.50;99.90;;;;;;5061422;28;20063;-80
2022/08/27 06:13:29;;;;;;;4.68;3.22;;;14.50;99.90;;;;;;5070795;28;20036;-79
2022/08/27 06:16:07;;;;;;;8.73;3.60;;;14.40;99.90;;;;;;5070199;28;20033;-79
2022/08/27 06:18:34;;;;;;;5.43;2.85;;;14.40;99.90;;;;;;5052459;28;20040;-79
2022/08/27 06:20:59;;;;;;;9.68;3.10;;;14.40;99.90;;;;;;5076310;28;20075;-78
2022/08/27 06:23:26;;;;;;;7.40;3.58;;;14.40;99.90;;;;;;5069686;28;20185;-78
2022/08/27 06:25:52;;;;;;;4.95;2.92;;;14.40;99.90;;;;;;5070694;28;20044;-79
2022/08/27 06:28:22;;;;;;;5.43;3.20;;;14.50;99.90;;;;;;5071537;28;20044;-78
2022/08/27 06:30:48;;;;;;;6.30;3.05;;;14.50;99.90;;;;;;5068613;28;20076;-79
2022/08/27 06:33:14;;;;;;;8.40;3.50;;;14.60;99.90;;;;;;5069177;28;20393;-79
2022/08/27 06:35:40;;;;;;;6.55;2.92;;;14.60;99.90;;;;;;5078923;28;20127;-82
2022/08/27 06:38:06;;;;;;;9.27;3.00;;;14.70;99.90;;;;;;5054836;28;20032;-82
2022/08/27 06:40:32;;;;;;;3.80;2.17;;;14.90;99.90;;;;;;5055009;28;20036;-82
2022/08/27 06:42:59;;;;;;;3.70;2.50;;;15.00;99.90;;;;;;5071162;28;20490;-82
2022/08/27 06:45:24;;;;;;;8.23;2.97;;;15.20;99.90;;;;;;5075120;28;20058;-82
2022/08/27 06:47:50;;;;;;;5.22;2.40;;;15.30;99.90;;;;;;5054935;28;20728;-82
2022/08/27 06:50:16;;;;;;;8.30;2.83;;;15.50;99.90;;;;;;5071959;28;20036;-82
2022/08/27 06:52:41;;;;;;;7.20;2.40;;;15.70;99.90;;;;;;5070769;28;20437;-83
2022/08/27 06:55:10;;;;;;;3.08;2.13;;;15.80;99.90;;;;;;5069700;28;20400;-83
2022/08/27 06:57:35;;;;;;;6.53;3.10;;;16.00;99.90;;;;;;5061441;28;20047;-83
2022/08/27 07:00:01;;;;;;;7.25;2.35;;;16.20;99.90;;;;;;5072530;28;20040;-83
2022/08/27 07:02:27;;;;;;;5.00;1.80;;;16.40;99.90;;;;;;5055355;28;20036;-84
2022/08/27 07:04:53;;;;;;;4.95;2.00;;;16.60;99.90;;;;;;5086536;28;20044;-83
2022/08/27 07:07:19;;;;;;;3.63;2.05;;;16.70;99.90;;;;;;5082026;28;20468;-83
2022/08/27 07:09:44;;;;;;;8.88;2.38;;;17.00;99.90;;;;;;5069743;28;20107;-83
2022/08/27 07:12:10;;;;;;;5.47;2.40;;;17.20;99.90;;;;;;5073566;28;20033;-83
2022/08/27 07:14:36;;;;;;;5.88;2.03;;;17.40;99.90;;;;;;5056819;28;20040;-83
2022/08/27 07:17:02;;;;;;;3.85;1.55;;;17.70;99.90;;;;;;5073630;28;20036;-84
2022/08/27 07:19:29;;;;;;;2.90;1.58;;;17.90;99.90;;;;;;5073331;28;20113;-83
2022/08/27 07:21:54;;;;;;;6.82;1.75;;;18.10;99.90;;;;;;5073449;28;20041;-82
2022/08/27 07:24:20;;;;;;;3.95;1.38;;;18.30;99.90;;;;;;5086021;28;20063;-83
2022/08/27 07:26:46;;;;;;;6.13;2.25;;;18.30;99.90;;;;;;5083934;28;20028;-83
2022/08/27 07:29:13;;;;;;;5.55;1.63;;;18.30;99.90;;;;;;5100537;28;20028;-83
2022/08/27 07:31:39;;;;;;;4.25;1.20;;;18.50;99.90;;;;;;5084652;28;20040;-83
2022/08/27 07:34:05;;;;;;;3.75;1.55;;;18.80;99.90;;;;;;5073296;28;20513;-83
2022/08/27 07:36:33;;;;;;;4.35;1.73;;;19.10;99.90;;;;;;5056313;28;20530;-83
2022/08/27 07:38:58;;;;;;;3.80;1.48;;;19.30;99.90;;;;;;5072981;28;20071;-84
2022/08/27 07:41:24;;;;;;;9.15;1.70;;;19.30;99.90;;;;;;5072507;28;20068;-83
2022/08/27 07:46:34;;;;;;;6.97;1.88;;;19.50;99.90;;;;;;5073008;28;20047;-84
2022/08/27 07:49:00;;;;;;;4.03;1.20;;;19.80;99.90;;;;;;5072383;28;20045;-84
2022/08/27 07:51:30;;;;;;;5.68;1.30;;;20.10;99.90;;;;;;5074541;28;20115;-84
2022/08/27 07:53:56;;;;;;;5.50;1.00;;;20.60;99.90;;;;;;5072547;28;20032;-84
2022/08/27 07:56:22;;;;;;;8.20;1.15;;;21.10;99.90;;;;;;5073740;28;20043;-84
2022/08/27 07:58:48;;;;;;;6.45;1.10;;;21.70;99.90;;;;;;5086029;28;20036;-84
2022/08/27 08:01:14;;;;;;;4.13;1.05;;;22.40;99.90;;;;;;5072858;28;20107;-83
2022/08/27 08:03:40;;;;;;;4.93;1.30;;;23.00;99.90;;;;;;5071361;28;20053;-82
2022/08/27 08:06:11;;;;;;;5.03;1.40;;;23.40;99.90;;;;;;5072420;28;20085;-82
2022/08/27 08:08:39;;;;;;;4.47;1.02;;;23.90;99.90;;;;;;5071860;28;20028;-82
2022/08/27 08:11:06;;;;;;;7.35;1.42;;;24.30;99.90;;;;;;5072405;28;20040;-82
2022/08/27 08:13:32;;;;;;;4.45;1.33;;;24.60;99.90;;;;;;5085456;28;20549;-82
2022/08/27 08:15:58;;;;;;;6.85;1.40;;;24.90;99.90;;;;;;5071649;28;20048;-81
2022/08/27 08:18:24;;;;;;;2.83;1.05;;;25.00;99.90;;;;;;5072532;28;20518;-83
2022/08/27 08:20:50;;;;;;;5.90;1.20;;;25.10;99.90;;;;;;5072059;28;20059;-82
2022/08/27 08:23:15;;;;;;;6.65;1.20;;;25.30;99.90;;;;;;5055468;28;20123;-82
2022/08/27 08:25:41;;;;;;;3.17;1.50;;;25.20;99.90;;;;;;5044559;28;20131;-82
2022/08/27 08:28:07;;;;;;;4.63;0.85;;;24.80;99.90;;;;;;5073234;28;20487;-82
2022/08/27 08:30:33;;;;;;;5.97;1.00;;;24.30;99.90;;;;;;5072270;28;20080;-81
2022/08/27 08:32:59;;;;;;;7.00;1.50;;;23.80;99.90;;;;;;5056015;28;20484;-82
2022/08/27 08:35:24;;;;;;;4.55;0.95;;;23.50;99.90;;;;;;5055651;28;20032;-82
2022/08/27 08:37:50;;;;;;;4.40;1.23;;;23.00;99.90;;;;;;5074081;28;20035;-81
2022/08/27 08:40:30;;;;;;;4.53;1.52;;;22.60;99.90;;;;;;5071873;28;20037;-81
2022/08/27 08:42:55;;;;;;;5.32;1.10;;;22.40;99.90;;;;;;5072831;28;20127;-81
2022/08/27 08:45:26;;;;;;;5.72;1.20;;;22.40;99.90;;;;;;5073007;28;20075;-81
2022/08/27 08:48:05;;;;;;;7.43;1.00;;;22.40;99.90;;;;;;5072193;28;20040;-81
2022/08/27 08:50:55;;;;;;;4.82;1.05;;;22.70;99.90;;;;;;5071365;28;20049;-81
2022/08/27 08:53:46;;;;;;;13.45;1.20;;;23.20;99.90;;;;;;5069514;28;20043;-82
2022/08/27 08:56:18;;;;;;;6.00;1.10;;;23.40;99.90;;;;;;5054920;28;20041;-81
2022/08/27 08:58:54;;;;;;;5.20;1.10;;;23.80;99.90;;;;;;5071671;28;20045;-81
2022/08/27 09:01:21;;;;;;;10.70;1.45;;;23.60;99.90;;;;;;5070994;28;20051;-80
2022/08/27 09:03:56;;;;;;;4.72;1.05;;;23.20;99.90;;;;;;5070489;28;20075;-80
2022/08/27 09:06:51;;;;;;;4.75;0.75;;;22.70;99.90;;;;;;5070908;28;20051;-80
2022/08/27 09:09:22;;;;;;;6.15;1.30;;;22.30;99.90;;;;;;5054636;28;20403;-81
2022/08/27 09:12:02;;;;;;;6.38;1.33;;;22.00;99.90;;;;;;5053585;28;20033;-80
2022/08/27 09:14:42;;;;;;;18.17;2.35;;;22.00;99.90;;;;;;5071960;28;20475;-80
2022/08/27 09:17:08;;;;;;;15.48;2.47;;;21.90;99.90;;;;;;5071996;28;20479;-80
2022/08/27 09:19:34;;;;;;;16.48;2.22;;;21.80;99.90;;;;;;5075461;28;20119;-80
2022/08/27 09:22:03;;;;;;;6.40;1.63;;;21.70;99.90;;;;;;5071787;28;20040;-81
2022/08/27 09:24:48;;;;;;;26.80;3.00;;;21.70;99.90;;;;;;5062260;28;20036;-81
2022/08/27 09:27:14;;;;;;;17.63;2.35;;;21.60;99.90;;;;;;5067567;28;20033;-81
2022/08/27 09:29:52;;;;;;;26.88;2.42;;;22.00;99.90;;;;;;5070696;28;20048;-81
2022/08/27 09:32:38;;;;;;;4.85;1.27;;;22.70;99.90;;;;;;5070836;28;20079;-80
2022/08/27 09:35:07;;;;;;;10.45;1.50;;;22.80;99.90;;;;;;5068753;28;20051;-80
2022/08/27 09:37:41;;;;;;;7.28;1.30;;;22.60;99.90;;;;;;5066360;28;20579;-81
2022/08/27 09:40:27;;;;;;;5.13;1.40;;;22.40;99.90;;;;;;5072637;28;20032;-80
2022/08/27 09:42:56;;;;;;;5.88;1.70;;;22.20;99.90;;;;;;5063900;28;20437;-81
2022/08/27 09:45:28;;;;;;;86.00;7.07;;;22.10;99.90;;;;;;5070089;28;20044;-80
2022/08/27 09:48:08;;;;;;;10.75;1.42;;;22.00;99.90;;;;;;5065178;28;20036;-82
2022/08/27 09:50:41;;;;;;;5.53;1.27;;;22.00;99.90;;;;;;5067921;28;20571;-81
2022/08/27 09:53:39;;;;;;;6.60;1.20;;;22.30;99.90;;;;;;5065925;28;20090;-81
2022/08/27 09:56:19;;;;;;;5.82;1.17;;;22.90;99.90;;;;;;5054567;28;20098;-80
2022/08/27 09:59:21;;;;;;;8.07;1.65;;;23.20;99.90;;;;;;5069116;28;20052;-80
2022/08/27 10:01:50;;;;;;;6.70;0.98;;;23.30;99.90;;;;;;5049567;28;20074;-81
2022/08/27 10:04:43;;;;;;;4.30;0.90;;;23.30;99.90;;;;;;5067630;28;20044;-82
2022/08/27 10:07:45;;;;;;;5.75;1.38;;;23.30;99.90;;;;;;5068876;28;20132;-80
2022/08/27 10:10:24;;;;;;;4.55;1.00;;;23.50;99.90;;;;;;5077334;28;20044;-80
2022/08/27 10:12:52;;;;;;;5.15;1.17;;;23.30;99.90;;;;;;5075272;28;20051;-80
2022/08/27 10:15:18;;;;;;;6.72;1.10;;;23.10;99.90;;;;;;5068601;28;20100;-81
2022/08/27 10:17:58;;;;;;;6.88;1.50;;;23.00;99.90;;;;;;5071317;28;20044;-80
2022/08/27 10:20:43;;;;;;;7.60;1.27;;;22.90;99.90;;;;;;5071958;28;20077;-80
2022/08/27 10:23:21;;;;;;;4.72;1.40;;;22.80;99.90;;;;;;5071875;28;20438;-80
2022/08/27 10:25:59;;;;;;;4.88;1.05;;;22.90;99.90;;;;;;5054228;28;20033;-80
2022/08/27 10:28:50;;;;;;;5.85;1.08;;;22.90;99.90;;;;;;5070845;28;20044;-80
2022/08/27 10:31:31;;;;;;;;;;;22.90;99.90;;;;;;5071594;28;20048;-80
2022/08/27 10:34:10;;;;;;;8.38;1.35;;;22.80;98.80;;;;;;5070997;28;20020;-81
2022/08/27 10:36:56;;;;;;;4.45;1.10;;;22.70;99.90;;;;;;5070645;28;20043;-81
2022/08/27 10:39:46;;;;;;;7.22;1.27;;;22.60;99.40;;;;;;5074862;28;20040;-81
2022/08/27 10:42:25;;;;;;;7.88;1.30;;;22.60;98.80;;;;;;5074708;28;20094;-80
2022/08/27 10:45:10;;;;;;;2.95;0.90;;;22.50;99.30;;;;;;5068788;28;20047;-81
2022/08/27 10:47:48;;;;;;;6.13;0.90;;;22.60;97.90;;;;;;5074925;28;20048;-81
2022/08/27 10:50:31;;;;;;;5.38;1.00;;;22.60;99.10;;;;;;5074911;28;20059;-79
2022/08/27 10:53:17;;;;;;;6.82;1.20;;;22.60;98.50;;;;;;5074666;28;20036;-81
2022/08/27 10:55:51;;;;;;;5.22;1.13;;;22.70;97.30;;;;;;5073911;28;20453;-82
2022/08/27 10:58:39;;;;;;;5.82;1.13;;;22.90;98.30;;;;;;5074405;28;20079;-81
2022/08/27 11:01:35;;;;;;;3.88;0.98;;;23.00;97.60;;;;;;5072699;28;20039;-80
2022/08/27 11:04:46;;;;;;;4.00;0.80;;;23.10;97.70;;;;;;5076212;28;20107;-80
2022/08/27 11:07:29;;;;;;;8.68;1.25;;;23.20;96.50;;;;;;5050104;28;20110;-81
2022/08/27 11:10:03;;;;;;;4.63;1.10;;;23.50;96.10;;;;;;5083563;28;20046;-81
2022/08/27 11:12:35;;;;;;;2.50;0.98;;;23.70;96.00;;;;;;5074099;28;20052;-81
2022/08/27 11:15:05;;;;;;;2.60;0.90;;;23.80;95.50;;;;;;5073523;28;20085;-81
2022/08/27 11:17:39;;;;;;;5.65;1.30;;;23.90;95.80;;;;;;5073623;28;20538;-82
2022/08/27 11:20:12;;;;;;;4.32;1.20;;;23.90;95.10;;;;;;5053025;28;20064;-78
2022/08/27 11:22:46;;;;;;;7.10;1.70;;;23.80;95.50;;;;;;5071002;28;20527;-79
2022/08/27 11:25:20;;;;;;;3.40;1.00;;;23.70;95.70;;;;;;5056247;28;20051;-79
2022/08/27 11:27:50;;;;;;;5.15;1.27;;;23.50;96.30;;;;;;5056952;28;20441;-79
2022/08/27 11:30:28;;;;;;;6.85;1.40;;;23.20;96.60;;;;;;5055927;28;20406;-79
2022/08/27 11:33:00;;;;;;;6.32;1.35;;;23.10;96.50;;;;;;5072985;28;20040;-79
2022/08/27 11:35:54;;;;;;;7.38;1.08;;;23.00;96.30;;;;;;5073006;28;20098;-78
2022/08/27 11:39:03;;;;;;;5.78;1.23;;;22.90;96.30;;;;;;5072756;28;20136;-78
2022/08/27 11:42:17;;;;;;;4.35;1.00;;;23.00;94.60;;;;;;5008648;28;20495;-78
2022/08/27 11:44:47;;;;;;;6.03;1.30;;;23.20;95.00;;;;;;4985798;28;20054;-78
2022/08/27 11:47:24;;;;;;;4.00;1.05;;;23.30;96.20;;;;;;5073785;28;20037;-78
2022/08/27 11:49:55;;;;;;;8.55;1.52;;;23.30;95.70;;;;;;5070917;28;20040;-79
2022/08/27 11:52:34;;;;;;;4.45;1.30;;;23.20;96.10;;;;;;5072401;28;20063;-79
2022/08/27 11:55:18;;;;;;;12.43;3.78;;;23.20;96.30;;;;;;5072461;28;20155;-79
2022/08/27 11:57:44;;;;;;;8.30;2.97;;;23.20;95.70;;;;;;5073734;28;20053;-78
2022/08/27 12:00:29;;;;;;;7.20;1.60;;;23.20;96.70;;;;;;5055231;28;20063;-79
2022/08/27 12:03:08;;;;;;;8.38;1.10;;;23.30;96.30;;;;;;5072127;28;20079;-78
2022/08/27 12:05:44;;;;;;;5.95;1.55;;;23.30;96.20;;;;;;5072335;28;20086;-78
2022/08/27 12:08:24;;;;;;;6.88;1.00;;;23.40;95.50;;;;;;5072527;28;20057;-79
2022/08/27 12:10:59;;;;;;;8.52;1.77;;;23.40;95.50;;;;;;5055534;28;20032;-78
2022/08/27 12:13:51;;;;;;;5.32;1.10;;;23.40;96.00;;;;;;5055371;28;20097;-78
2022/08/27 12:16:32;;;;;;;7.55;1.17;;;23.40;95.40;;;;;;5055737;28;20480;-78
2022/08/27 12:18:58;;;;;;;3.35;0.95;;;23.30;95.90;;;;;;5055583;28;20040;-78
2022/08/27 12:21:39;;;;;;;4.95;0.90;;;23.10;96.20;;;;;;5071627;28;20051;-78
2022/08/27 12:24:35;;;;;;;3.65;0.82;;;23.20;95.80;;;;;;5071931;28;20047;-79
2022/08/27 12:27:30;;;;;;;5.40;0.90;;;23.00;94.70;;;;;;5055481;28;20046;-78
2022/08/27 12:30:18;;;;;;;5.70;1.00;;;23.00;94.70;;;;;;5054813;28;20041;-79
2022/08/27 12:32:47;;;;;;;3.17;0.95;;;23.00;94.50;;;;;;5055397;28;20498;-79
2022/08/27 12:35:22;;;;;;;3.28;0.85;;;23.00;95.20;;;;;;5072057;28;20037;-78
2022/08/27 12:38:01;;;;;;;6.15;1.50;;;23.00;96.00;;;;;;5054900;28;20090;-79
2022/08/27 12:40:39;;;;;;;3.95;1.00;;;23.10;95.10;;;;;;5054857;28;20049;-79
2022/08/27 12:43:23;;;;;;;5.03;1.10;;;23.30;91.50;;;;;;5072681;28;20059;-78
2022/08/27 12:45:59;;;;;;;4.72;1.23;;;23.30;94.00;;;;;;5055319;28;20032;-78
2022/08/27 12:48:42;;;;;;;2.42;1.00;;;23.20;93.00;;;;;;5072555;28;20040;-78
2022/08/27 12:51:31;;;;;;;5.35;1.20;;;22.90;93.20;;;;;;5071203;28;20601;-78
2022/08/27 12:54:18;;;;;;;3.67;1.00;;;22.80;95.00;;;;;;5054562;28;20036;-79
2022/08/27 12:56:58;;;;;;;6.38;0.80;;;22.90;95.70;;;;;;5054759;28;20076;-79
2022/08/27 12:59:42;;;;;;;5.25;1.15;;;23.10;94.50;;;;;;5054617;28;20126;-79
2022/08/27 13:02:46;;;;;;;5.30;0.85;;;23.10;93.10;;;;;;5070824;28;20059;-79
2022/08/27 13:05:12;;;;;;;4.72;1.50;;;23.00;92.80;;;;;;5033003;28;20071;-79
2022/08/27 13:07:41;;;;;;;4.93;1.00;;;23.20;94.60;;;;;;5054432;28;20067;-79
2022/08/27 13:10:19;;;;;;;6.53;1.23;;;23.50;93.60;;;;;;5054034;28;20040;-79